Time;durP1;ratioP1;P1;durP2;ratioP2;P2;SDS_P1;SDS_P2;PMS_P1;PMS_P2;Temp;Humidity;BMP_temperature;BMP_pressure;BME280_temperature;BME280_humidity;BME280_pressure;Samples;Min_cycle;Max_cycle;Signal;HPM_P1;HPM_P2
2021/05/27 00:00:34;;;;;;;0.83;0.83;;;7.60;99.90;;;;;;5022171;28;20183;-82
2021/05/27 00:03:00;;;;;;;0.80;0.80;;;7.70;99.90;;;;;;5023599;28;20194;-82
2021/05/27 00:05:27;;;;;;;1.17;1.07;;;7.60;99.90;;;;;;5021512;28;20179;-81
2021/05/27 00:07:53;;;;;;;0.93;0.90;;;7.60;99.90;;;;;;5024562;28;20206;-81
2021/05/27 00:10:25;;;;;;;1.30;0.90;;;7.70;99.90;;;;;;5024694;28;20172;-81
2021/05/27 00:12:52;;;;;;;0.80;0.80;;;7.60;99.90;;;;;;5026485;28;20169;-81
2021/05/27 00:15:20;;;;;;;2.00;1.10;;;7.60;99.90;;;;;;5022820;28;20178;-82
2021/05/27 00:17:46;;;;;;;0.87;0.73;;;7.70;99.90;;;;;;5023558;28;20175;-82
2021/05/27 00:20:13;;;;;;;1.30;0.90;;;7.70;99.90;;;;;;5022848;28;20183;-81
2021/05/27 00:22:39;;;;;;;1.33;0.90;;;7.60;99.90;;;;;;5023329;28;20179;-81
2021/05/27 00:25:07;;;;;;;0.83;0.80;;;7.60;99.90;;;;;;5022030;28;20220;-82
2021/05/27 00:27:32;;;;;;;1.23;0.80;;;7.60;99.90;;;;;;5021699;28;20205;-82
2021/05/27 00:29:58;;;;;;;1.37;0.90;;;7.60;99.90;;;;;;5026875;28;20551;-82
2021/05/27 00:32:24;;;;;;;1.17;1.07;;;7.50;99.90;;;;;;5021912;28;20225;-82
2021/05/27 00:34:49;;;;;;;1.37;0.93;;;7.50;99.90;;;;;;5021592;28;20825;-82
2021/05/27 00:37:15;;;;;;;1.80;0.80;;;7.40;99.90;;;;;;5023190;28;20210;-82
2021/05/27 00:39:41;;;;;;;0.70;0.70;;;7.50;99.90;;;;;;5021293;28;20175;-82
2021/05/27 00:42:06;;;;;;;1.23;0.60;;;7.50;99.90;;;;;;5023339;28;20209;-81
2021/05/27 00:44:33;;;;;;;2.20;0.93;;;7.50;99.90;;;;;;5022929;28;20194;-81
2021/05/27 00:47:01;;;;;;;1.27;0.80;;;7.50;99.90;;;;;;5024561;28;20203;-81
2021/05/27 00:49:27;;;;;;;0.77;0.70;;;7.50;99.90;;;;;;5032519;28;20175;-81
2021/05/27 00:51:54;;;;;;;0.80;0.80;;;7.40;99.90;;;;;;5034654;28;20677;-82
2021/05/27 00:54:20;;;;;;;4.33;0.97;;;7.40;99.90;;;;;;5033802;28;20433;-81
2021/05/27 00:56:48;;;;;;;3.97;0.90;;;7.40;99.90;;;;;;5025068;28;20452;-82
2021/05/27 00:59:15;;;;;;;0.80;0.80;;;7.40;99.90;;;;;;5024435;28;20420;-82
2021/05/27 01:01:41;;;;;;;1.03;0.70;;;7.40;99.90;;;;;;5026002;28;20621;-81
2021/05/27 01:04:07;;;;;;;2.33;0.80;;;7.40;99.90;;;;;;5023596;28;20500;-81
2021/05/27 01:06:33;;;;;;;0.87;0.73;;;7.40;99.90;;;;;;5024490;28;20405;-81
2021/05/27 01:09:00;;;;;;;1.87;0.90;;;7.40;99.90;;;;;;5023988;28;20186;-81
2021/05/27 01:11:26;;;;;;;1.03;0.93;;;7.50;99.90;;;;;;5024331;28;20200;-81
2021/05/27 01:13:52;;;;;;;0.90;0.80;;;7.40;99.90;;;;;;5025104;28;20797;-81
2021/05/27 01:16:23;;;;;;;1.93;0.90;;;7.40;99.90;;;;;;5024065;28;20171;-81
2021/05/27 01:18:49;;;;;;;1.23;1.13;;;7.40;99.90;;;;;;5024785;28;20167;-81
2021/05/27 01:21:16;;;;;;;1.50;0.90;;;7.40;99.90;;;;;;5024536;28;20414;-80
2021/05/27 01:23:42;;;;;;;1.07;0.80;;;7.40;99.90;;;;;;5023326;28;20238;-81
2021/05/27 01:26:12;;;;;;;1.00;0.90;;;7.40;99.90;;;;;;5023914;28;20414;-81
2021/05/27 01:28:41;;;;;;;1.10;0.80;;;7.40;99.90;;;;;;5022970;28;20198;-81
2021/05/27 01:31:09;;;;;;;1.20;1.07;;;7.40;99.90;;;;;;5022419;28;20416;-81
2021/05/27 01:33:36;;;;;;;1.87;1.00;;;7.50;99.90;;;;;;5023856;28;20665;-81
2021/05/27 01:36:02;;;;;;;1.30;0.97;;;7.50;99.90;;;;;;5022102;28;20175;-81
2021/05/27 01:38:29;;;;;;;2.37;0.80;;;7.40;99.90;;;;;;5022406;28;20515;-82
2021/05/27 01:40:57;;;;;;;1.17;0.90;;;7.40;99.90;;;;;;5023790;28;20231;-81
2021/05/27 01:43:23;;;;;;;2.20;0.90;;;7.40;99.90;;;;;;5026712;28;20214;-82
2021/05/27 01:45:49;;;;;;;1.20;0.90;;;7.30;99.90;;;;;;5024272;28;20182;-82
2021/05/27 01:48:15;;;;;;;0.93;0.93;;;7.40;99.90;;;;;;5022718;28;20279;-81
2021/05/27 01:50:47;;;;;;;1.07;0.80;;;7.40;99.90;;;;;;5024046;28;20210;-81
2021/05/27 01:53:13;;;;;;;1.10;0.80;;;7.40;99.90;;;;;;5022178;28;20682;-81
2021/05/27 01:55:42;;;;;;;1.60;1.00;;;7.40;99.90;;;;;;5022029;28;20171;-81
2021/05/27 01:58:08;;;;;;;1.47;0.73;;;;;;;;;;5022505;28;20174;-82
2021/05/27 02:00:34;;;;;;;0.90;0.90;;;7.40;99.90;;;;;;5021825;28;20927;-81
2021/05/27 02:02:59;;;;;;;1.50;1.00;;;7.30;99.90;;;;;;5021888;28;20206;-81
2021/05/27 02:05:25;;;;;;;1.20;1.10;;;7.30;99.90;;;;;;5022205;28;20250;-81
2021/05/27 02:07:51;;;;;;;4.13;1.20;;;7.20;99.90;;;;;;5023236;28;20201;-81
2021/05/27 02:10:17;;;;;;;1.13;1.00;;;7.30;99.90;;;;;;5023806;28;20171;-82
2021/05/27 02:12:42;;;;;;;1.10;1.00;;;7.30;99.90;;;;;;5023530;28;20655;-82
2021/05/27 02:15:09;;;;;;;1.00;0.90;;;7.30;99.90;;;;;;5022817;28;20210;-82
2021/05/27 02:17:35;;;;;;;1.30;1.20;;;7.30;99.90;;;;;;5023039;28;20218;-82
2021/05/27 02:20:02;;;;;;;0.80;0.80;;;7.20;99.90;;;;;;5022046;28;20246;-82
2021/05/27 02:22:27;;;;;;;1.10;1.00;;;7.20;99.90;;;;;;5022666;28;20179;-82
2021/05/27 02:24:53;;;;;;;1.30;1.00;;;7.20;99.90;;;;;;5023178;28;20708;-82
2021/05/27 02:27:19;;;;;;;0.80;0.80;;;7.10;99.90;;;;;;5025175;28;20294;-81
2021/05/27 02:29:45;;;;;;;1.10;0.80;;;7.20;99.90;;;;;;5024620;28;20209;-82
2021/05/27 02:32:10;;;;;;;0.93;0.93;;;7.20;99.90;;;;;;5026885;28;20205;-80
2021/05/27 02:34:36;;;;;;;2.70;1.10;;;7.20;99.90;;;;;;5022350;28;20198;-81
2021/05/27 02:37:02;;;;;;;2.20;1.00;;;7.20;99.90;;;;;;5020688;28;20679;-81
2021/05/27 02:39:28;;;;;;;1.80;1.10;;;7.10;99.90;;;;;;5020609;28;20274;-81
2021/05/27 02:41:54;;;;;;;1.20;1.10;;;7.10;99.90;;;;;;5029207;28;20418;-81
2021/05/27 02:44:20;;;;;;;2.63;1.03;;;7.10;99.90;;;;;;5021776;28;20309;-81
2021/05/27 02:46:46;;;;;;;1.50;1.20;;;7.10;99.90;;;;;;5021661;28;20602;-81
2021/05/27 02:49:12;;;;;;;1.63;1.17;;;7.10;99.90;;;;;;5022690;28;20481;-81
2021/05/27 02:51:38;;;;;;;2.33;1.60;;;7.10;99.90;;;;;;5022446;28;20182;-82
2021/05/27 02:54:03;;;;;;;2.17;1.20;;;7.10;99.90;;;;;;5022404;28;20183;-82
2021/05/27 02:56:29;;;;;;;1.00;0.90;;;7.00;99.90;;;;;;5021817;28;20178;-81
2021/05/27 02:58:55;;;;;;;1.20;1.10;;;7.00;99.90;;;;;;5021764;28;20179;-81
2021/05/27 03:01:21;;;;;;;2.10;1.43;;;7.00;99.90;;;;;;5020828;28;20205;-81
2021/05/27 03:03:46;;;;;;;2.43;1.47;;;7.00;99.90;;;;;;5021369;28;20263;-81
2021/05/27 03:06:12;;;;;;;1.47;1.23;;;7.00;99.90;;;;;;5021290;28;20205;-81
2021/05/27 03:08:41;;;;;;;1.87;1.50;;;7.00;99.90;;;;;;5021032;28;20214;-82
2021/05/27 03:11:07;;;;;;;2.67;1.30;;;7.00;99.90;;;;;;5021932;28;20253;-81
2021/05/27 03:13:33;;;;;;;2.23;1.30;;;7.10;99.90;;;;;;5032007;28;20448;-82
2021/05/27 03:16:00;;;;;;;2.23;1.40;;;7.10;99.90;;;;;;5023819;28;20170;-82
2021/05/27 03:18:25;;;;;;;2.33;1.40;;;7.00;99.90;;;;;;5024348;28;20572;-82
2021/05/27 03:20:51;;;;;;;1.63;1.53;;;;;;;;;;5023917;28;20187;-82
2021/05/27 03:23:17;;;;;;;2.10;1.60;;;7.10;99.90;;;;;;5023774;28;20209;-81
2021/05/27 03:25:43;;;;;;;1.40;1.30;;;7.10;99.90;;;;;;5022874;28;20823;-82
2021/05/27 03:28:09;;;;;;;1.33;1.23;;;7.10;99.90;;;;;;5021911;28;20206;-82
2021/05/27 03:30:34;;;;;;;1.23;1.10;;;7.10;99.90;;;;;;5021506;28;20183;-82
2021/05/27 03:33:00;;;;;;;1.37;1.10;;;7.10;99.90;;;;;;5021683;28;20230;-82
2021/05/27 03:35:26;;;;;;;4.50;1.70;;;7.10;99.90;;;;;;5021886;28;20190;-82
2021/05/27 03:37:51;;;;;;;3.50;1.30;;;7.10;99.90;;;;;;5023207;28;20179;-82
2021/05/27 03:40:18;;;;;;;1.40;1.17;;;7.10;99.90;;;;;;5023027;28;20179;-82
2021/05/27 03:42:52;;;;;;;1.63;1.30;;;7.10;99.90;;;;;;5023272;28;20185;-82
2021/05/27 03:45:20;;;;;;;1.63;1.40;;;7.00;99.90;;;;;;5022528;28;20414;-81
2021/05/27 03:47:49;;;;;;;1.70;1.20;;;6.80;99.90;;;;;;5022679;28;20458;-82
2021/05/27 03:50:19;;;;;;;1.63;1.30;;;7.10;99.90;;;;;;5022304;28;20414;-82
2021/05/27 03:52:45;;;;;;;1.60;1.40;;;7.10;99.90;;;;;;5021795;28;20482;-82
2021/05/27 03:55:14;;;;;;;2.83;1.20;;;7.10;99.90;;;;;;5021703;28;20425;-82
2021/05/27 03:57:39;;;;;;;1.63;1.50;;;7.00;99.90;;;;;;5023564;28;20414;-82
2021/05/27 04:02:52;;;;;;;2.73;1.60;;;7.10;99.90;;;;;;5027514;28;20190;-82
2021/05/27 04:08:04;;;;;;;1.57;1.40;;;7.20;99.90;;;;;;5032016;28;20285;-82
2021/05/27 04:10:30;;;;;;;1.70;1.60;;;7.20;99.90;;;;;;5023988;28;20181;-83
2021/05/27 04:12:56;;;;;;;1.97;1.77;;;7.30;99.90;;;;;;5022585;28;20410;-83
2021/05/27 04:15:27;;;;;;;2.00;1.67;;;7.30;99.90;;;;;;5022213;28;20179;-83
2021/05/27 04:18:09;;;;;;;1.60;1.50;;;7.30;99.90;;;;;;5021932;28;20178;-83
2021/05/27 04:20:37;;;;;;;2.37;1.73;;;7.30;99.90;;;;;;5020631;28;20229;-82
2021/05/27 04:23:05;;;;;;;1.93;1.67;;;7.30;99.90;;;;;;5021118;28;20499;-83
2021/05/27 04:25:30;;;;;;;2.13;1.93;;;7.30;99.90;;;;;;5020829;28;20445;-82
2021/05/27 04:27:57;;;;;;;2.00;1.80;;;7.30;99.90;;;;;;5021508;28;20203;-82
2021/05/27 04:30:24;;;;;;;1.87;1.40;;;7.30;99.90;;;;;;5024942;28;20175;-82
2021/05/27 04:33:04;;;;;;;1.60;1.50;;;7.30;99.90;;;;;;5025985;28;20424;-84
2021/05/27 04:35:31;;;;;;;1.83;1.50;;;7.30;99.90;;;;;;5026122;28;20178;-83
2021/05/27 04:38:00;;;;;;;2.00;1.57;;;7.30;99.90;;;;;;5026581;28;20182;-83
2021/05/27 04:40:26;;;;;;;2.23;1.70;;;7.30;99.90;;;;;;5025808;28;20186;-83
2021/05/27 04:42:52;;;;;;;1.63;1.53;;;7.20;99.90;;;;;;5026316;28;20191;-83
2021/05/27 04:45:18;;;;;;;2.53;1.73;;;;;;;;;;5027518;28;20185;-83
2021/05/27 04:47:44;;;;;;;3.30;1.20;;;7.30;99.90;;;;;;5028134;28;20202;-83
2021/05/27 04:50:11;;;;;;;3.10;1.43;;;7.30;99.90;;;;;;5032339;28;20780;-84
2021/05/27 04:52:37;;;;;;;1.70;1.40;;;7.30;99.90;;;;;;5028829;28;20418;-83
2021/05/27 04:55:05;;;;;;;1.90;1.40;;;7.40;99.90;;;;;;5031889;28;20564;-83
2021/05/27 04:57:31;;;;;;;2.23;1.60;;;7.40;99.90;;;;;;5026543;28;20432;-83
2021/05/27 04:59:57;;;;;;;2.20;1.73;;;7.40;99.90;;;;;;5028634;28;20250;-83
2021/05/27 05:02:22;;;;;;;3.20;2.07;;;7.40;99.90;;;;;;5025745;28;20690;-83
2021/05/27 05:04:48;;;;;;;5.13;3.03;;;7.40;99.90;;;;;;5009030;28;20704;-83
2021/05/27 05:07:14;;;;;;;5.60;2.23;;;7.40;99.90;;;;;;5026006;28;20206;-83
2021/05/27 05:09:39;;;;;;;3.73;2.20;;;7.40;99.90;;;;;;5023595;28;20183;-83
2021/05/27 05:12:05;;;;;;;2.27;1.67;;;7.40;99.90;;;;;;5023036;28;20246;-83
2021/05/27 05:14:31;;;;;;;2.13;1.53;;;7.30;99.90;;;;;;5021665;28;20285;-84
2021/05/27 05:16:57;;;;;;;2.70;1.97;;;7.30;99.90;;;;;;5025048;28;20216;-84
2021/05/27 05:19:23;;;;;;;3.73;2.13;;;7.30;99.90;;;;;;5026310;28;20175;-84
2021/05/27 05:21:49;;;;;;;3.00;2.17;;;7.40;99.90;;;;;;5024131;28;20668;-83
2021/05/27 05:24:14;;;;;;;2.40;1.97;;;7.40;99.90;;;;;;5022810;28;20215;-85
2021/05/27 05:26:40;;;;;;;1.60;1.50;;;7.40;99.90;;;;;;5023521;28;20175;-85
2021/05/27 05:29:06;;;;;;;3.77;1.67;;;7.40;99.90;;;;;;5021921;28;20190;-84
2021/05/27 05:31:33;;;;;;;1.83;1.73;;;7.40;99.90;;;;;;5022602;28;20749;-83
2021/05/27 05:33:59;;;;;;;2.27;1.73;;;7.50;99.90;;;;;;5021332;28;20234;-82
2021/05/27 05:36:25;;;;;;;2.50;1.97;;;7.40;99.90;;;;;;5023057;28;20167;-82
2021/05/27 05:38:51;;;;;;;2.40;2.20;;;7.40;99.90;;;;;;5023461;28;20230;-82
2021/05/27 05:41:17;;;;;;;3.03;1.80;;;7.40;99.90;;;;;;5019931;28;20195;-82
2021/05/27 05:43:43;;;;;;;2.43;2.23;;;7.50;99.90;;;;;;5020351;28;20203;-83
2021/05/27 05:46:09;;;;;;;3.53;2.10;;;7.50;99.90;;;;;;5020258;28;20174;-83
2021/05/27 05:48:35;;;;;;;3.77;1.83;;;7.50;99.90;;;;;;5021128;28;20199;-83
2021/05/27 05:51:03;;;;;;;1.80;1.70;;;7.60;99.90;;;;;;5020735;28;20179;-83
2021/05/27 05:53:29;;;;;;;5.33;2.10;;;7.60;99.90;;;;;;5021623;28;20255;-83
2021/05/27 05:55:54;;;;;;;3.80;2.33;;;7.60;99.90;;;;;;5019920;28;20417;-82
2021/05/27 05:58:21;;;;;;;2.40;2.20;;;7.70;99.90;;;;;;5020263;28;20179;-82
2021/05/27 06:00:47;;;;;;;2.97;2.40;;;7.70;99.90;;;;;;5020994;28;20219;-83
2021/05/27 06:03:13;;;;;;;4.67;2.17;;;7.80;99.90;;;;;;5024581;28;20206;-82
2021/05/27 06:05:39;;;;;;;5.60;2.50;;;7.70;99.90;;;;;;5026817;28;20266;-83
2021/05/27 06:08:05;;;;;;;4.00;2.50;;;7.80;99.90;;;;;;5021770;28;20213;-83
2021/05/27 06:10:31;;;;;;;2.90;2.03;;;7.90;99.90;;;;;;5022263;28;20178;-82
2021/05/27 06:12:58;;;;;;;4.73;3.37;;;7.90;99.90;;;;;;5022024;28;20175;-82
2021/05/27 06:15:25;;;;;;;5.37;2.40;;;7.90;99.90;;;;;;5019829;28;20175;-83
2021/05/27 06:17:51;;;;;;;3.40;2.60;;;7.90;99.90;;;;;;5020178;28;20175;-83
2021/05/27 06:20:20;;;;;;;4.00;2.47;;;7.90;99.90;;;;;;5021168;28;20171;-83
2021/05/27 06:22:46;;;;;;;3.80;3.00;;;7.90;99.90;;;;;;5020647;28;20190;-83
2021/05/27 06:25:13;;;;;;;4.27;3.03;;;7.90;99.90;;;;;;5020622;28;20203;-83
2021/05/27 06:27:40;;;;;;;7.13;2.00;;;7.90;99.90;;;;;;5020593;28;20257;-83
2021/05/27 06:30:07;;;;;;;3.13;2.40;;;7.90;99.90;;;;;;5020857;28;20270;-83
2021/05/27 06:32:35;;;;;;;1.87;1.73;;;7.90;99.90;;;;;;5021745;28;20183;-83
2021/05/27 06:35:06;;;;;;;3.33;1.73;;;7.80;99.90;;;;;;5021015;28;20461;-83
2021/05/27 06:37:37;;;;;;;1.57;1.40;;;7.80;99.90;;;;;;5020361;28;20265;-83
2021/05/27 06:40:05;;;;;;;1.87;1.60;;;7.90;99.90;;;;;;5020055;28;20260;-82
2021/05/27 06:42:30;;;;;;;2.10;1.63;;;7.90;99.90;;;;;;5018899;28;20270;-82
2021/05/27 06:44:56;;;;;;;1.77;1.43;;;7.90;99.90;;;;;;5019491;28;20222;-82
2021/05/27 06:47:22;;;;;;;2.37;1.60;;;8.00;99.90;;;;;;5020856;28;20207;-82
2021/05/27 06:49:47;;;;;;;1.70;1.30;;;8.00;99.90;;;;;;5018781;28;20237;-83
2021/05/27 06:52:13;;;;;;;1.50;1.37;;;8.10;99.90;;;;;;5020260;28;20177;-82
2021/05/27 06:54:39;;;;;;;1.63;1.53;;;8.30;99.90;;;;;;5018660;28;20198;-82
2021/05/27 06:57:05;;;;;;;2.10;1.40;;;8.10;99.90;;;;;;5019176;28;20184;-83
2021/05/27 06:59:30;;;;;;;1.40;0.97;;;8.10;99.90;;;;;;5025701;28;20166;-83
2021/05/27 07:01:56;;;;;;;2.93;1.43;;;8.10;99.90;;;;;;5020135;28;20182;-83
2021/05/27 07:04:22;;;;;;;1.80;1.50;;;8.30;99.90;;;;;;5020391;28;20719;-83
2021/05/27 07:06:47;;;;;;;1.60;1.33;;;8.40;99.90;;;;;;5020682;28;20183;-83
2021/05/27 07:09:14;;;;;;;2.67;1.40;;;8.40;99.90;;;;;;5020735;28;20236;-83
2021/05/27 07:11:40;;;;;;;1.47;1.37;;;8.30;99.90;;;;;;5022697;28;20202;-83
2021/05/27 07:14:06;;;;;;;1.63;1.43;;;8.40;99.90;;;;;;5023267;28;20223;-83
2021/05/27 07:16:33;;;;;;;1.50;1.30;;;8.50;99.90;;;;;;5026107;28;20178;-83
2021/05/27 07:18:59;;;;;;;1.33;1.20;;;8.50;99.90;;;;;;5032885;28;20176;-82
2021/05/27 07:21:25;;;;;;;2.47;1.50;;;8.50;99.90;;;;;;5038557;28;20183;-83
2021/05/27 07:23:51;;;;;;;9.97;4.97;;;8.70;99.90;;;;;;5037322;28;20268;-83
2021/05/27 07:26:17;;;;;;;4.20;2.40;;;8.80;99.90;;;;;;5021640;28;20195;-83
2021/05/27 07:28:43;;;;;;;9.03;4.87;;;8.80;99.90;;;;;;5019245;28;20737;-83
2021/05/27 07:31:10;;;;;;;12.67;7.20;;;8.70;99.90;;;;;;5018980;28;20207;-83
2021/05/27 07:33:35;;;;;;;8.13;5.30;;;8.80;99.90;;;;;;5019918;28;20198;-83
2021/05/27 07:36:03;;;;;;;7.43;4.47;;;8.90;99.90;;;;;;5020218;28;20523;-83
2021/05/27 07:38:29;;;;;;;4.57;2.17;;;8.80;99.90;;;;;;5019560;28;20187;-83
2021/05/27 07:40:54;;;;;;;2.40;1.47;;;8.90;99.90;;;;;;5018409;28;20189;-83
2021/05/27 07:43:20;;;;;;;2.73;1.77;;;8.80;99.90;;;;;;5019572;28;20203;-83
2021/05/27 07:45:46;;;;;;;95.67;43.43;;;8.80;99.90;;;;;;5020163;28;20182;-83
2021/05/27 07:48:11;;;;;;;23.20;12.20;;;8.80;99.90;;;;;;5018627;28;20212;-83
2021/05/27 07:50:37;;;;;;;2.17;1.40;;;8.80;99.90;;;;;;5019818;28;20166;-83
2021/05/27 07:53:03;;;;;;;1.37;1.10;;;8.80;99.90;;;;;;5018776;28;20691;-83
2021/05/27 07:55:28;;;;;;;2.13;1.33;;;8.90;99.90;;;;;;5018280;28;20546;-83
2021/05/27 07:57:54;;;;;;;1.97;1.17;;;9.10;99.90;;;;;;5019127;28;20185;-83
2021/05/27 08:00:21;;;;;;;2.70;2.23;;;9.10;99.90;;;;;;5019188;28;20234;-83
2021/05/27 08:02:47;;;;;;;2.00;1.80;;;9.10;99.90;;;;;;5019036;28;20215;-83
2021/05/27 08:05:15;;;;;;;2.07;1.80;;;9.10;99.90;;;;;;5018156;28;20242;-83
2021/05/27 08:07:41;;;;;;;1.50;1.30;;;9.20;99.90;;;;;;5018584;28;20239;-83
2021/05/27 08:10:08;;;;;;;2.50;1.00;;;9.30;99.90;;;;;;5018011;28;20170;-83
2021/05/27 08:12:34;;;;;;;1.17;0.90;;;9.30;99.90;;;;;;5001679;28;20180;-83
2021/05/27 08:15:00;;;;;;;1.43;0.97;;;9.40;99.90;;;;;;5018649;28;20206;-83
2021/05/27 08:17:26;;;;;;;2.23;1.50;;;9.40;99.90;;;;;;5020291;28;20179;-83
2021/05/27 08:19:51;;;;;;;4.00;2.07;;;9.40;99.90;;;;;;5019009;28;20545;-83
2021/05/27 08:22:17;;;;;;;2.07;1.87;;;9.50;99.90;;;;;;5018817;28;20178;-83
2021/05/27 08:24:46;;;;;;;3.40;1.53;;;9.60;99.90;;;;;;5018714;28;20218;-83
2021/05/27 08:27:12;;;;;;;0.80;0.70;;;9.60;99.90;;;;;;5018804;28;20203;-83
2021/05/27 08:29:38;;;;;;;1.30;0.80;;;9.60;99.90;;;;;;5018225;28;20177;-83
2021/05/27 08:32:07;;;;;;;2.53;1.07;;;9.70;99.90;;;;;;5018304;28;20175;-83
2021/05/27 08:34:33;;;;;;;0.67;0.67;;;9.60;99.90;;;;;;5018880;28;20192;-83
2021/05/27 08:37:00;;;;;;;0.80;0.77;;;9.70;99.90;;;;;;5019505;28;20178;-83
2021/05/27 08:39:26;;;;;;;2.30;0.87;;;9.70;99.90;;;;;;5020686;28;20170;-83
2021/05/27 08:41:51;;;;;;;1.50;1.20;;;9.60;99.90;;;;;;5018596;28;20175;-83
2021/05/27 08:44:17;;;;;;;5.93;4.50;;;9.50;99.90;;;;;;5019800;28;20219;-83
2021/05/27 08:46:43;;;;;;;1.83;1.20;;;9.60;99.90;;;;;;5019918;28;20237;-83
2021/05/27 08:49:09;;;;;;;3.80;1.03;;;9.70;99.90;;;;;;5019413;28;20207;-83
2021/05/27 08:51:35;;;;;;;5.60;3.03;;;9.90;99.90;;;;;;5018141;28;20175;-82
2021/05/27 08:54:02;;;;;;;2.67;1.60;;;10.00;99.90;;;;;;5018866;28;20191;-83
2021/05/27 08:56:28;;;;;;;3.40;2.70;;;9.90;99.90;;;;;;5030167;28;20171;-83
2021/05/27 08:58:54;;;;;;;5.70;3.00;;;9.80;99.90;;;;;;5018826;28;20662;-83
2021/05/27 09:01:23;;;;;;;12.33;7.07;;;9.70;99.90;;;;;;5019885;28;20175;-83
2021/05/27 09:03:49;;;;;;;7.03;4.43;;;9.90;99.90;;;;;;5017837;28;20200;-83
2021/05/27 09:06:16;;;;;;;3.73;2.47;;;10.10;99.90;;;;;;5019641;28;20207;-83
2021/05/27 09:08:42;;;;;;;4.33;2.80;;;10.20;99.90;;;;;;5025792;28;20282;-83
2021/05/27 09:11:10;;;;;;;2.77;1.77;;;10.30;99.90;;;;;;5019509;28;20198;-83
2021/05/27 09:13:50;;;;;;;2.33;1.23;;;10.30;99.90;;;;;;5020528;28;20653;-84
2021/05/27 09:16:15;;;;;;;1.90;1.30;;;10.40;99.90;;;;;;5022750;28;20167;-83
2021/05/27 09:18:42;;;;;;;2.90;1.97;;;10.40;99.90;;;;;;5024066;28;20186;-83
2021/05/27 09:21:11;;;;;;;2.77;2.10;;;10.30;99.90;;;;;;5023931;28;20260;-85
2021/05/27 09:23:44;;;;;;;3.80;2.70;;;10.00;99.90;;;;;;5024379;28;20195;-83
2021/05/27 09:26:15;;;;;;;2.73;2.00;;;9.80;99.90;;;;;;5025603;28;20221;-83
2021/05/27 09:28:43;;;;;;;4.43;2.77;;;9.70;99.90;;;;;;5024088;28;20217;-83
2021/05/27 09:31:12;;;;;;;5.80;3.43;;;9.70;99.90;;;;;;5026136;28;20203;-83
2021/05/27 09:33:43;;;;;;;2.90;2.00;;;9.70;99.90;;;;;;5025619;28;20186;-83
2021/05/27 09:36:15;;;;;;;3.03;1.97;;;9.80;99.90;;;;;;5025009;28;20179;-83
2021/05/27 09:38:43;;;;;;;6.93;4.10;;;9.90;99.90;;;;;;5029414;28;20215;-83
2021/05/27 09:41:21;;;;;;;2.97;2.43;;;10.10;99.90;;;;;;5023989;28;20179;-83
2021/05/27 09:43:50;;;;;;;2.47;1.73;;;10.20;99.90;;;;;;5024881;28;20201;-83
2021/05/27 09:46:15;;;;;;;2.60;1.70;;;10.20;99.90;;;;;;5023679;28;20209;-83
2021/05/27 09:48:43;;;;;;;2.40;1.47;;;10.20;99.90;;;;;;5023373;28;20215;-83
2021/05/27 09:51:09;;;;;;;3.03;2.13;;;10.30;99.90;;;;;;5023449;28;20189;-83
2021/05/27 09:53:35;;;;;;;4.87;2.30;;;10.20;99.90;;;;;;5023712;28;20194;-82
2021/05/27 09:56:04;;;;;;;2.63;1.97;;;10.20;99.90;;;;;;5022493;28;20229;-83
2021/05/27 09:58:30;;;;;;;4.37;2.00;;;10.40;99.90;;;;;;5023705;28;20246;-82
2021/05/27 10:00:56;;;;;;;4.37;2.03;;;10.70;99.90;;;;;;5024157;28;20237;-82
2021/05/27 10:03:30;;;;;;;1.80;1.37;;;10.70;99.90;;;;;;5023728;28;20203;-83
2021/05/27 10:06:17;;;;;;;2.83;1.70;;;10.50;99.90;;;;;;5023352;28;20184;-83
2021/05/27 10:09:01;;;;;;;2.17;1.03;;;10.20;99.90;;;;;;5025391;28;20229;-83
2021/05/27 10:11:27;;;;;;;2.63;1.80;;;10.00;99.90;;;;;;5025216;28;20151;-82
2021/05/27 10:13:54;;;;;;;2.60;1.53;;;9.70;99.90;;;;;;5023599;28;20198;-83
2021/05/27 10:16:23;;;;;;;1.97;1.27;;;9.50;99.90;;;;;;5022355;28;20175;-83
2021/05/27 10:18:49;;;;;;;4.53;2.37;;;9.40;99.90;;;;;;5024235;28;20188;-82
2021/05/27 10:21:16;;;;;;;4.73;2.03;;;9.30;99.90;;;;;;5024665;28;20182;-83
2021/05/27 10:23:42;;;;;;;2.17;1.23;;;9.40;99.90;;;;;;5020841;28;20206;-82
2021/05/27 10:26:08;;;;;;;1.80;1.20;;;9.40;99.90;;;;;;5021487;28;20657;-82
2021/05/27 10:28:34;;;;;;;3.70;2.43;;;9.30;99.90;;;;;;4991448;28;20234;-82
2021/05/27 10:31:01;;;;;;;2.53;1.53;;;9.60;99.90;;;;;;5025840;28;20188;-82
2021/05/27 10:33:40;;;;;;;2.20;1.70;;;9.70;99.90;;;;;;5035345;28;20207;-83
2021/05/27 10:36:07;;;;;;;1.83;1.47;;;9.90;99.90;;;;;;5036025;28;20222;-83
2021/05/27 10:38:42;;;;;;;1.53;1.10;;;10.00;99.90;;;;;;5024685;28;20297;-84
2021/05/27 10:41:27;;;;;;;1.43;0.80;;;10.10;99.90;;;;;;5021626;28;20262;-84
2021/05/27 10:43:59;;;;;;;1.17;0.97;;;10.20;99.90;;;;;;5012636;28;20281;-84
2021/05/27 10:46:26;;;;;;;1.63;1.00;;;10.10;99.90;;;;;;5023710;28;20182;-83
2021/05/27 10:48:52;;;;;;;1.60;1.00;;;10.30;99.90;;;;;;5023107;28;20226;-83
2021/05/27 10:51:32;;;;;;;1.50;1.10;;;10.60;99.90;;;;;;5025093;28;20174;-83
2021/05/27 10:54:05;;;;;;;1.13;0.80;;;11.10;99.90;;;;;;5024107;28;20205;-84
2021/05/27 10:56:34;;;;;;;1.27;1.03;;;11.20;99.90;;;;;;5023135;28;20579;-84
2021/05/27 10:59:00;;;;;;;1.10;0.80;;;11.10;99.90;;;;;;5022627;28;20273;-84
2021/05/27 11:01:33;;;;;;;1.40;1.30;;;11.30;99.90;;;;;;5022716;28;20194;-84
2021/05/27 11:04:07;;;;;;;1.20;0.70;;;11.40;99.90;;;;;;5024323;28;20249;-84
2021/05/27 11:06:40;;;;;;;1.10;0.70;;;11.60;99.90;;;;;;5023483;28;20187;-83
2021/05/27 11:09:13;;;;;;;1.20;0.73;;;12.00;99.90;;;;;;5024261;28;20266;-81
2021/05/27 11:11:42;;;;;;;2.67;0.80;;;12.40;99.90;;;;;;5023613;28;20540;-83
2021/05/27 11:14:35;;;;;;;0.53;0.53;;;12.40;99.90;;;;;;5025452;28;20199;-83
2021/05/27 11:22:46;;;;;;;0.90;0.77;;;13.50;99.90;;;;;;5028951;28;20231;-83
2021/05/27 11:25:15;;;;;;;1.77;0.70;;;14.00;99.90;;;;;;5026515;28;20199;-83
2021/05/27 11:28:05;;;;;;;0.40;0.40;;;14.10;99.90;;;;;;5023844;28;20218;-83
2021/05/27 11:30:36;;;;;;;1.53;0.90;;;14.20;99.90;;;;;;5022426;28;20194;-84
2021/05/27 11:33:05;;;;;;;0.80;0.60;;;14.70;99.90;;;;;;5026589;28;20158;-83
2021/05/27 11:35:40;;;;;;;0.60;0.60;;;15.30;99.90;;;;;;5027174;28;20171;-84
2021/05/27 11:38:08;;;;;;;0.70;0.70;;;15.00;99.90;;;;;;5026987;28;20175;-84
2021/05/27 11:40:38;;;;;;;1.17;0.80;;;15.40;99.90;;;;;;5027914;28;20194;-83
2021/05/27 11:43:04;;;;;;;0.60;0.60;;;15.40;99.90;;;;;;5029325;28;20183;-83
2021/05/27 11:45:38;;;;;;;1.73;0.83;;;15.70;99.90;;;;;;5031323;28;20167;-84
2021/05/27 11:48:34;;;;;;;2.20;0.70;;;15.60;99.90;;;;;;5031745;28;20197;-83
2021/05/27 11:51:10;;;;;;;0.70;0.70;;;15.20;99.90;;;;;;5026387;28;20167;-83
2021/05/27 11:53:46;;;;;;;1.00;0.90;;;14.90;99.90;;;;;;5026171;28;20206;-82
2021/05/27 11:56:13;;;;;;;1.10;0.70;;;15.10;99.90;;;;;;5026101;28;20193;-82
2021/05/27 11:58:41;;;;;;;0.83;0.73;;;15.00;99.90;;;;;;5027719;28;20274;-83
2021/05/27 12:01:18;;;;;;;0.67;0.60;;;14.70;99.90;;;;;;5027646;28;20184;-81
2021/05/27 12:04:18;;;;;;;0.80;0.80;;;14.40;99.90;;;;;;5030855;28;20185;-82
2021/05/27 12:06:56;;;;;;;2.00;0.70;;;14.30;99.90;;;;;;4992303;28;20190;-83
2021/05/27 12:09:30;;;;;;;0.70;0.70;;;14.40;99.90;;;;;;5027401;28;20168;-83
2021/05/27 12:11:58;;;;;;;0.60;0.60;;;15.00;99.90;;;;;;5025054;28;20636;-84
2021/05/27 12:14:24;;;;;;;1.53;0.70;;;15.10;99.90;;;;;;5027036;28;20251;-84
2021/05/27 12:16:53;;;;;;;0.80;0.80;;;14.70;99.90;;;;;;5025796;28;20182;-84
2021/05/27 12:19:19;;;;;;;1.43;0.90;;;14.30;99.90;;;;;;5025876;28;20202;-84
2021/05/27 12:21:54;;;;;;;0.63;0.63;;;13.90;99.90;;;;;;5025538;28;20186;-83
2021/05/27 12:24:24;;;;;;;1.10;0.70;;;13.50;99.90;;;;;;5026656;28;20206;-84
2021/05/27 12:26:50;;;;;;;0.80;0.70;;;13.50;99.90;;;;;;5026909;28;20183;-83
2021/05/27 12:29:16;;;;;;;0.80;0.80;;;13.40;99.90;;;;;;5027063;28;20229;-83
2021/05/27 12:31:42;;;;;;;0.60;0.60;;;13.20;99.90;;;;;;5028141;28;20159;-82
2021/05/27 12:34:08;;;;;;;1.10;0.50;;;13.00;99.90;;;;;;5026997;28;20660;-83
2021/05/27 12:36:57;;;;;;;1.00;0.70;;;12.80;99.90;;;;;;5027629;28;20175;-84
2021/05/27 12:39:35;;;;;;;0.60;0.60;;;13.20;99.90;;;;;;5025531;28;20221;-83
2021/05/27 12:42:03;;;;;;;1.20;1.10;;;13.50;99.90;;;;;;5026050;28;20182;-84
2021/05/27 12:44:42;;;;;;;0.60;0.50;;;13.60;99.90;;;;;;5026644;28;20199;-82
2021/05/27 12:47:19;;;;;;;0.70;0.70;;;13.40;99.90;;;;;;5027145;28;20158;-83
2021/05/27 12:49:48;;;;;;;0.40;0.40;;;12.70;99.90;;;;;;5027241;28;20189;-82
2021/05/27 12:52:41;;;;;;;0.40;0.40;;;12.80;99.90;;;;;;5029356;28;20174;-82
2021/05/27 12:55:09;;;;;;;0.93;0.60;;;12.90;99.90;;;;;;5031272;28;20194;-82
2021/05/27 12:57:50;;;;;;;0.60;0.60;;;12.50;99.90;;;;;;5028763;28;20182;-83
2021/05/27 13:00:16;;;;;;;0.50;0.50;;;12.50;99.90;;;;;;5030117;28;20182;-82
2021/05/27 13:02:41;;;;;;;0.53;0.50;;;12.60;99.90;;;;;;5029358;28;20174;-83
2021/05/27 13:05:20;;;;;;;0.50;0.40;;;12.70;99.90;;;;;;5030606;28;20195;-82
2021/05/27 13:08:00;;;;;;;0.50;0.50;;;12.90;99.90;;;;;;5030180;28;20661;-83
2021/05/27 13:10:33;;;;;;;0.87;0.60;;;13.20;99.90;;;;;;5030583;28;20179;-82